Aldrich, Missouri
Current Conditions -  °F | °C
As of 3:52 AM on Monday 26 Jan 2015 (Local Time) from KSGF Reporting Station
Overcast Overcast  
Wind Chill: -3°   Ceiling: 1600
Heat Index:   Visibility: 10mi
Dew Point: -3°   Wind: 6mph
Humidity: 82%   Direction: 340°NNW
Pressure: 30.07"   Gusts: NA
Location:  37.55°N, 93.55°W
Report Text: KSGF 260952Z 34005KT 10SM OVC016 00/M03 A3007 RMK AO2 SLP191 T00001028
Loading
Personal Weather Stations






























Interactive Weather Map New forecast layout! Learn more

10-Day Weather Forecast

Advertisements
Track Severe Weather on mobile